Terminal Aerodrome Forecast
Issued by NWS Mt. Holly, NJ

Home | Current Version | Previous Version | Text Only | Print | Product List | Glossary On
Versions: 1 2 3 4 5 6 7 8 9 10 11 12 13 14 15 16 17 18 19 20
000
FTUS41 KPHI 240700 AAB
TAFILG
TAF AMD
KILG 240758Z 2408/2506 15020G30KT P6SM OVC007 WS020/20055KT
      TEMPO 2408/2410 3SM -RA BR OVC005
     FM241200 17013KT 4SM BR OVC004 WS020/20055KT
     FM241400 20014G24KT P6SM -SHRA SCT008 OVC025
     FM241700 20016G28KT P6SM SCT020 BKN050
     FM250000 23008KT P6SM OVC050=

USA.gov is the U.S. government's official web portal to all federal, state and local government web resources and services.